createdAt,value
2017-02-06T05:31:54.795Z,0
2017-02-06T05:32:35.356Z,0
2017-02-06T05:33:15.826Z,0
2017-02-06T05:33:56.331Z,0
2017-02-06T05:34:36.844Z,0
2017-02-06T05:35:17.379Z,0
2017-02-06T05:35:57.898Z,0
2017-02-06T05:36:38.370Z,0
2017-02-06T05:37:18.875Z,0
2017-02-06T05:37:59.393Z,0
2017-02-06T05:38:39.909Z,0
2017-02-06T05:39:20.410Z,0
2017-02-06T05:40:00.967Z,0
2017-02-06T05:40:41.465Z,0
2017-02-06T05:41:22.020Z,0
2017-02-06T05:42:02.515Z,0
2017-02-06T05:42:43.022Z,0
2017-02-06T05:43:23.534Z,0
2017-02-06T05:44:04.053Z,0
2017-02-06T05:44:44.559Z,0
2017-02-06T05:45:25.062Z,0
2017-02-06T05:46:05.591Z,0
2017-02-06T05:46:46.115Z,0
2017-02-06T05:47:26.622Z,0
2017-02-06T05:48:07.147Z,0
2017-02-06T05:48:47.638Z,0
2017-02-06T05:49:28.151Z,0
2017-02-06T05:50:08.668Z,0
2017-02-06T05:50:49.164Z,0
2017-02-06T05:51:29.699Z,0
2017-02-06T05:52:10.227Z,0
2017-02-06T05:52:50.749Z,0
2017-02-06T05:53:31.275Z,0
2017-02-06T05:54:11.793Z,0
2017-02-06T05:54:52.301Z,0
2017-02-06T05:55:32.819Z,0
2017-02-06T05:56:13.322Z,0
2017-02-06T05:56:53.851Z,0
2017-02-06T05:57:34.343Z,0
2017-02-06T05:58:14.901Z,0
2017-02-06T05:58:55.417Z,0
2017-02-06T05:59:35.908Z,0
2017-02-06T06:00:16.443Z,0
2017-02-06T06:00:56.984Z,0
2017-02-06T06:01:37.531Z,0
2017-02-06T06:02:18.020Z,0
2017-02-06T06:02:58.633Z,0
2017-02-06T06:03:39.212Z,0
2017-02-06T06:04:19.706Z,0
2017-02-06T06:05:00.261Z,0
2017-02-06T06:05:40.783Z,0
2017-02-06T06:06:21.282Z,0
2017-02-06T06:07:01.770Z,0
2017-02-06T06:07:42.272Z,0
2017-02-06T06:08:22.788Z,0
2017-02-06T06:09:03.318Z,0
2017-02-06T06:09:43.808Z,0
2017-02-06T06:10:24.337Z,0
2017-02-06T06:11:04.843Z,0
2017-02-06T06:11:45.352Z,0
2017-02-06T06:12:25.875Z,0
2017-02-06T06:13:06.386Z,0
2017-02-06T06:13:46.919Z,0
2017-02-06T06:14:27.411Z,0
2017-02-06T06:15:07.928Z,0
2017-02-06T06:15:48.443Z,0
2017-02-06T06:16:28.994Z,0
2017-02-06T06:17:09.473Z,0
2017-02-06T06:17:49.973Z,0
2017-02-06T06:18:30.488Z,0
2017-02-06T06:19:11.016Z,0
2017-02-06T06:19:51.522Z,0
2017-02-06T06:20:32.042Z,0
2017-02-06T06:21:12.603Z,0
2017-02-06T06:21:53.108Z,0
2017-02-06T06:22:33.619Z,0
2017-02-06T06:23:14.113Z,0
2017-02-06T06:23:54.616Z,0
2017-02-06T06:24:35.142Z,0
2017-02-06T06:25:15.656Z,0
2017-02-06T06:25:56.171Z,0
2017-02-06T06:26:36.683Z,0
2017-02-06T06:27:17.177Z,0
2017-02-06T06:27:57.712Z,0
2017-02-06T06:28:38.208Z,0
2017-02-06T06:29:18.727Z,0
2017-02-06T06:29:59.223Z,0
2017-02-06T06:30:39.731Z,0
2017-02-06T06:31:20.235Z,0
2017-02-06T06:32:00.743Z,0
2017-02-06T06:32:41.260Z,0
2017-02-06T06:33:21.766Z,0
2017-02-06T06:34:02.285Z,4
2017-02-06T06:34:42.809Z,4
2017-02-06T06:35:23.322Z,4
2017-02-06T06:36:03.870Z,0
2017-02-06T06:36:44.345Z,4
2017-02-06T06:37:24.864Z,4
2017-02-06T06:38:05.390Z,4
2017-02-06T06:38:45.894Z,4
2017-02-06T06:39:26.395Z,4
2017-02-06T06:40:06.898Z,8
2017-02-06T06:40:47.413Z,4
2017-02-06T06:41:27.921Z,8
2017-02-06T06:42:08.423Z,12
2017-02-06T06:42:48.946Z,8
2017-02-06T06:43:29.458Z,12
2017-02-06T06:44:09.961Z,12
2017-02-06T06:44:50.463Z,12
2017-02-06T06:45:30.966Z,16
2017-02-06T06:46:11.474Z,16
2017-02-06T06:46:51.980Z,16
2017-02-06T06:47:32.513Z,20
2017-02-06T06:48:13.007Z,20
2017-02-06T06:48:53.517Z,20
2017-02-06T06:49:34.018Z,24
2017-02-06T06:50:14.568Z,24
2017-02-06T06:50:55.085Z,28
2017-02-06T06:51:35.558Z,28
2017-02-06T06:52:16.079Z,32
2017-02-06T06:52:56.564Z,32
2017-02-06T06:53:37.060Z,40
2017-02-06T06:54:17.568Z,40
2017-02-06T06:54:58.098Z,44
2017-02-06T06:55:38.566Z,44
2017-02-06T06:56:19.074Z,48
2017-02-06T06:56:59.591Z,52
2017-02-06T06:57:40.108Z,56
2017-02-06T06:58:20.611Z,60
2017-02-06T06:59:01.116Z,60
2017-02-06T06:59:41.622Z,64
2017-02-06T07:00:22.120Z,72
2017-02-06T07:01:02.606Z,76
2017-02-06T07:01:43.109Z,80
2017-02-06T07:02:23.617Z,80
2017-02-06T07:03:04.134Z,88
2017-02-06T07:03:44.644Z,92
2017-02-06T07:04:25.168Z,100
2017-02-06T07:05:05.677Z,104
2017-02-06T07:05:46.217Z,112
2017-02-06T07:06:26.728Z,116
2017-02-06T07:07:07.247Z,124
2017-02-06T07:07:47.746Z,128
2017-02-06T07:08:28.237Z,140
2017-02-06T07:09:08.766Z,144
2017-02-06T07:09:49.279Z,152
2017-02-06T07:10:29.777Z,160
2017-02-06T07:11:10.288Z,172
2017-02-06T07:11:50.803Z,180
2017-02-06T07:12:31.297Z,192
2017-02-06T07:13:11.808Z,200
2017-02-06T07:13:52.330Z,212
2017-02-06T07:14:32.837Z,224
2017-02-06T07:15:13.351Z,232
2017-02-06T07:15:53.904Z,244
2017-02-06T07:16:34.409Z,256
2017-02-06T07:17:14.996Z,268
2017-02-06T07:17:55.496Z,276
2017-02-06T07:18:36.004Z,288
2017-02-06T07:19:16.501Z,304
2017-02-06T07:19:57.013Z,312
2017-02-06T07:20:37.517Z,324
2017-02-06T07:21:18.025Z,340
2017-02-06T07:21:58.551Z,352
2017-02-06T07:22:39.068Z,368
2017-02-06T07:23:19.581Z,376
2017-02-06T07:24:00.076Z,396
2017-02-06T07:24:40.606Z,420
2017-02-06T07:25:21.086Z,440
2017-02-06T07:26:01.587Z,452
2017-02-06T07:26:42.083Z,464
2017-02-06T07:27:22.599Z,472
2017-02-06T07:28:03.089Z,480
2017-02-06T07:28:43.587Z,492
2017-02-06T07:29:24.101Z,508
2017-02-06T07:30:04.608Z,524
2017-02-06T07:30:45.111Z,532
2017-02-06T07:31:25.615Z,536
2017-02-06T07:32:06.152Z,544
2017-02-06T07:32:46.656Z,556
2017-02-06T07:33:27.159Z,560
2017-02-06T07:34:07.684Z,568
2017-02-06T07:34:48.201Z,584
2017-02-06T07:35:28.692Z,596
2017-02-06T07:36:09.203Z,608
2017-02-06T07:36:49.737Z,620
2017-02-06T07:37:30.248Z,624
2017-02-06T07:38:10.794Z,632
2017-02-06T07:38:51.287Z,652
2017-02-06T07:39:31.814Z,680
2017-02-06T07:40:12.352Z,744
2017-02-06T07:40:52.872Z,812
2017-02-06T07:41:33.427Z,824
2017-02-06T07:42:13.940Z,836
2017-02-06T07:42:54.442Z,860
2017-02-06T07:43:35.031Z,912
2017-02-06T07:44:15.548Z,944
2017-02-06T07:44:56.051Z,944
2017-02-06T07:45:36.561Z,972
2017-02-06T07:46:17.065Z,1000
2017-02-06T07:46:57.571Z,1048
2017-02-06T07:47:38.091Z,1080
2017-02-06T07:48:18.610Z,1108
2017-02-06T07:48:59.092Z,1160
2017-02-06T07:49:39.583Z,1208
2017-02-06T07:50:20.070Z,1248
2017-02-06T07:51:00.572Z,1288
2017-02-06T07:51:41.119Z,1316
2017-02-06T07:52:21.633Z,1320
2017-02-06T07:53:02.154Z,1328
2017-02-06T07:53:42.666Z,1372
2017-02-06T07:54:23.181Z,1448
2017-02-06T07:55:03.688Z,1536
2017-02-06T07:55:44.194Z,1556
2017-02-06T07:56:24.706Z,1540
2017-02-06T07:57:05.222Z,1556
2017-02-06T07:57:45.750Z,1588
2017-02-06T07:58:26.239Z,1600
2017-02-06T07:59:06.742Z,1620
2017-02-06T07:59:47.267Z,1652
2017-02-06T08:00:27.765Z,1636
2017-02-06T08:01:08.278Z,1608
2017-02-06T08:01:48.772Z,1628
2017-02-06T08:02:29.294Z,1672
2017-02-06T08:03:09.830Z,1708
2017-02-06T08:03:50.376Z,1744
2017-02-06T08:04:30.912Z,1784
2017-02-06T08:05:11.406Z,1824
2017-02-06T08:05:51.943Z,1856
2017-02-06T08:06:32.433Z,1872
2017-02-06T08:07:12.936Z,1876
2017-02-06T08:07:53.430Z,1868
2017-02-06T08:08:33.955Z,1860
2017-02-06T08:09:14.448Z,1856
2017-02-06T08:09:54.959Z,1832
2017-02-06T08:10:35.472Z,1824
2017-02-06T08:11:15.964Z,1816
2017-02-06T08:11:56.449Z,1812
2017-02-06T08:12:36.977Z,1832
2017-02-06T08:13:17.501Z,1852
2017-02-06T08:13:58.021Z,1856
2017-02-06T08:14:38.531Z,1884
2017-02-06T08:15:19.015Z,1912
2017-02-06T08:15:59.532Z,1904
2017-02-06T08:16:40.009Z,1904
2017-02-06T08:17:20.499Z,1908
2017-02-06T08:18:01.021Z,1908
2017-02-06T08:18:41.544Z,1908
2017-02-06T08:19:22.179Z,1896
2017-02-06T08:20:02.776Z,1880
2017-02-06T08:20:48.635Z,1888
2017-02-06T08:21:29.140Z,1888
2017-02-06T08:22:09.666Z,1812
2017-02-06T08:22:50.192Z,1748
2017-02-06T08:23:30.695Z,1800
2017-02-06T08:24:11.202Z,1884
2017-02-06T08:24:51.718Z,2056
2017-02-06T08:25:32.241Z,2128
2017-02-06T08:26:12.745Z,2116
2017-02-06T08:26:53.245Z,2056
2017-02-06T08:27:33.756Z,1848
2017-02-06T08:28:14.244Z,1788
2017-02-06T08:28:54.751Z,1820
2017-02-06T08:29:35.262Z,1824
2017-02-06T08:30:15.772Z,1836
2017-02-06T08:30:56.274Z,1904
2017-02-06T08:31:36.773Z,1912
2017-02-06T08:32:17.282Z,1828
2017-02-06T08:32:57.794Z,1688
2017-02-06T08:33:38.303Z,1528
2017-02-06T08:34:18.814Z,1400
2017-02-06T08:34:59.320Z,1352
2017-02-06T08:35:39.823Z,1360
2017-02-06T08:36:20.318Z,1432
2017-02-06T08:37:00.841Z,1460
2017-02-06T08:37:41.374Z,1472
2017-02-06T08:38:21.874Z,1484
2017-02-06T08:39:02.401Z,1484
2017-02-06T08:39:42.911Z,1504
2017-02-06T08:40:23.428Z,1536
2017-02-06T08:41:03.931Z,1552
2017-02-06T08:41:44.418Z,1512
2017-02-06T08:42:24.974Z,1472
2017-02-06T08:43:05.466Z,1456
2017-02-06T08:43:45.981Z,1412
2017-02-06T08:44:26.504Z,1356
2017-02-06T08:45:07.025Z,1320
2017-02-06T08:45:47.523Z,1260
2017-02-06T08:46:28.040Z,1248
2017-02-06T08:47:08.553Z,1260
2017-02-06T08:47:49.048Z,1260
2017-02-06T08:48:29.545Z,1240
2017-02-06T08:49:10.042Z,1232
2017-02-06T08:49:50.556Z,1236
2017-02-06T08:50:31.072Z,1220
2017-02-06T08:51:11.583Z,1192
2017-02-06T08:51:52.067Z,1176
2017-02-06T08:52:32.570Z,1176
2017-02-06T08:53:13.092Z,1204
2017-02-06T08:53:53.594Z,1260
2017-02-06T08:54:34.140Z,1316
2017-02-06T08:55:14.641Z,1336
2017-02-06T08:55:55.166Z,1332
2017-02-06T08:56:35.692Z,1308
2017-02-06T08:57:16.190Z,1240
2017-02-06T08:57:56.697Z,1208
2017-02-06T08:58:37.220Z,1192
2017-02-06T08:59:17.741Z,1192
2017-02-06T08:59:58.263Z,1208
2017-02-06T09:00:38.790Z,1232
2017-02-06T09:01:19.336Z,1236
2017-02-06T09:01:59.885Z,1216
2017-02-06T09:02:40.422Z,1216
2017-02-06T09:03:20.909Z,1232
2017-02-06T09:04:01.421Z,1256
2017-02-06T09:04:41.916Z,1280
2017-02-06T09:05:22.434Z,1316
2017-02-06T09:06:02.976Z,1376
2017-02-06T09:06:43.474Z,1448
2017-02-06T09:07:23.977Z,1492
2017-02-06T09:08:04.475Z,1512
2017-02-06T09:08:44.982Z,1540
2017-02-06T09:09:25.503Z,1592
2017-02-06T09:10:06.019Z,1644
2017-02-06T09:10:46.536Z,1700
2017-02-06T09:11:27.067Z,1740
2017-02-06T09:12:07.589Z,1792
2017-02-06T09:12:48.089Z,1808
2017-02-06T09:13:28.602Z,1768
2017-02-06T09:14:09.089Z,1712
2017-02-06T09:14:49.605Z,1644
2017-02-06T09:15:30.109Z,1592
2017-02-06T09:16:10.628Z,1564
2017-02-06T09:16:51.129Z,1588
2017-02-06T09:17:31.641Z,1616
2017-02-06T09:18:12.129Z,1660
2017-02-06T09:18:52.634Z,1728
2017-02-06T09:19:33.163Z,1804
2017-02-06T09:20:13.662Z,1864
2017-02-06T09:20:54.189Z,1924
2017-02-06T09:21:34.722Z,1964
2017-02-06T09:22:15.237Z,1992
2017-02-06T09:22:55.768Z,2004
2017-02-06T09:23:36.291Z,2008
2017-02-06T09:24:16.800Z,2036
2017-02-06T09:24:57.313Z,2084
2017-02-06T09:25:37.807Z,2116
2017-02-06T09:26:18.318Z,2176
2017-02-06T09:26:58.818Z,2184
2017-02-06T09:27:39.334Z,2176
2017-02-06T09:28:19.859Z,2184
2017-02-06T09:29:00.373Z,2192
2017-02-06T09:29:40.885Z,2184
2017-02-06T09:30:21.404Z,2260
2017-02-06T09:31:01.897Z,2416
2017-02-06T09:31:42.430Z,2476
2017-02-06T09:32:22.932Z,2560
2017-02-06T09:33:03.433Z,2632
2017-02-06T09:33:43.943Z,2800
2017-02-06T09:34:24.478Z,2984
2017-02-06T09:35:04.988Z,3200
2017-02-06T09:35:45.501Z,3200
2017-02-06T09:36:26.027Z,3068
2017-02-06T09:37:06.530Z,2908
2017-02-06T09:37:47.033Z,2824
2017-02-06T09:38:27.527Z,2768
2017-02-06T09:39:08.044Z,2716
2017-02-06T09:39:48.542Z,2704
2017-02-06T09:40:29.070Z,2744
2017-02-06T09:41:09.569Z,2820
2017-02-06T09:41:50.070Z,2816
2017-02-06T09:42:30.560Z,2820
2017-02-06T09:43:11.063Z,2820
2017-02-06T09:43:51.569Z,2776
2017-02-06T09:44:32.115Z,2752
2017-02-06T09:45:12.596Z,2608
2017-02-06T09:45:53.125Z,2352
2017-02-06T09:46:33.601Z,2140
2017-02-06T09:47:14.107Z,2048
2017-02-06T09:47:54.608Z,1960
2017-02-06T09:48:35.102Z,1888
2017-02-06T09:49:15.641Z,1860
2017-02-06T09:49:56.140Z,1836
2017-02-06T09:50:36.660Z,1824
2017-02-06T09:51:17.175Z,1820
2017-02-06T09:51:57.712Z,1788
2017-02-06T09:52:38.230Z,1764
2017-02-06T09:53:18.731Z,1820
2017-02-06T09:53:59.231Z,1828
2017-02-06T09:54:39.738Z,1708
2017-02-06T09:55:20.227Z,1584
2017-02-06T09:56:00.731Z,1492
2017-02-06T09:56:41.239Z,1456
2017-02-06T09:57:21.753Z,1508
2017-02-06T09:58:02.265Z,1540
2017-02-06T09:58:42.780Z,1584
2017-02-06T09:59:23.283Z,1648
2017-02-06T10:00:03.796Z,1692
2017-02-06T10:00:44.314Z,1708
2017-02-06T10:01:24.818Z,1704
2017-02-06T10:02:05.329Z,1708
2017-02-06T10:02:45.828Z,1728
2017-02-06T10:03:26.340Z,1740
2017-02-06T10:04:06.842Z,1776
2017-02-06T10:04:47.335Z,1800
2017-02-06T10:05:27.849Z,1800
2017-02-06T10:06:08.366Z,1792
2017-02-06T10:06:48.905Z,1780
2017-02-06T10:07:29.382Z,1748
2017-02-06T10:08:09.877Z,1736
2017-02-06T10:08:50.435Z,1708
2017-02-06T10:09:30.915Z,1680
2017-02-06T10:10:11.436Z,1664
2017-02-06T10:10:51.923Z,1660
2017-02-06T10:11:32.432Z,1684
2017-02-06T10:12:12.964Z,1728
2017-02-06T10:12:53.458Z,1772
2017-02-06T10:13:33.965Z,1824
2017-02-06T10:14:14.507Z,1900
2017-02-06T10:14:54.964Z,1968
2017-02-06T10:15:35.490Z,2024
2017-02-06T10:16:16.008Z,2060
2017-02-06T10:16:56.529Z,2092
2017-02-06T10:17:37.031Z,2144
2017-02-06T10:18:17.547Z,2212
2017-02-06T10:18:58.048Z,2300
2017-02-06T10:19:38.572Z,2368
2017-02-06T10:20:19.054Z,2392
2017-02-06T10:20:59.575Z,2356
2017-02-06T10:21:40.091Z,2340
2017-02-06T10:22:20.590Z,2304
2017-02-06T10:23:01.105Z,2252
2017-02-06T10:23:41.619Z,2216
2017-02-06T10:24:22.132Z,2164
2017-02-06T10:25:02.648Z,2076
2017-02-06T10:25:43.143Z,1976
2017-02-06T10:26:23.669Z,1888
2017-02-06T10:27:04.186Z,1904
2017-02-06T10:27:44.682Z,1944
2017-02-06T10:28:25.195Z,1984
2017-02-06T10:29:05.701Z,2048
2017-02-06T10:29:46.202Z,2108
2017-02-06T10:30:26.704Z,2188
2017-02-06T10:31:07.213Z,2260
2017-02-06T10:31:47.723Z,2336
2017-02-06T10:32:28.227Z,2440
2017-02-06T10:33:08.716Z,2540
2017-02-06T10:33:49.235Z,2604
2017-02-06T10:34:29.745Z,2696
2017-02-06T10:35:10.242Z,2840
2017-02-06T10:35:50.760Z,3072
2017-02-06T10:36:31.266Z,3288
2017-02-06T10:37:11.762Z,3352
2017-02-06T10:37:52.274Z,3312
2017-02-06T10:38:32.772Z,3428
2017-02-06T10:39:13.270Z,3544
2017-02-06T10:39:53.778Z,3564
2017-02-06T10:40:34.305Z,3400
2017-02-06T10:41:14.812Z,3276
2017-02-06T10:41:55.312Z,3256
2017-02-06T10:42:35.835Z,3232
2017-02-06T10:43:16.354Z,3088
2017-02-06T10:43:56.877Z,2968
2017-02-06T10:44:37.379Z,2864
2017-02-06T10:45:17.920Z,2900
2017-02-06T10:45:58.426Z,2976
2017-02-06T10:46:38.908Z,3048
2017-02-06T10:47:19.419Z,3080
2017-02-06T10:47:59.935Z,3136
2017-02-06T10:48:40.409Z,3196
2017-02-06T10:49:20.931Z,3180
2017-02-06T10:50:01.463Z,3052
2017-02-06T10:50:41.961Z,2972
2017-02-06T10:51:22.483Z,2984
2017-02-06T10:52:02.958Z,2984
2017-02-06T10:52:43.461Z,3016
2017-02-06T10:53:23.964Z,3100
2017-02-06T10:54:04.474Z,3104
2017-02-06T10:54:44.971Z,3160
2017-02-06T10:55:25.483Z,3216
2017-02-06T10:56:05.979Z,3240
2017-02-06T10:56:46.508Z,3304
2017-02-06T10:57:26.981Z,3356
2017-02-06T10:58:07.480Z,3420
2017-02-06T10:58:47.970Z,3480
2017-02-06T10:59:28.500Z,3444
2017-02-06T11:00:09.005Z,3268
2017-02-06T11:00:49.528Z,3072
2017-02-06T11:01:30.054Z,2932
2017-02-06T11:02:10.579Z,2792
2017-02-06T11:02:51.058Z,2724
2017-02-06T11:03:31.570Z,2724
2017-02-06T11:04:12.085Z,2756
2017-02-06T11:04:52.594Z,2892
2017-02-06T11:05:33.125Z,2972
2017-02-06T11:06:13.652Z,3012
2017-02-06T11:06:54.154Z,3120
2017-02-06T11:07:34.664Z,3224
2017-02-06T11:08:15.207Z,3212
2017-02-06T11:08:55.688Z,3260
2017-02-06T11:09:36.201Z,3244
2017-02-06T11:10:16.713Z,3200
2017-02-06T11:10:57.215Z,3224
2017-02-06T11:11:37.731Z,3192
2017-02-06T11:12:18.240Z,3112
2017-02-06T11:12:58.743Z,3016
2017-02-06T11:13:39.257Z,2944
2017-02-06T11:14:19.778Z,2908
2017-02-06T11:15:00.273Z,2788
2017-02-06T11:15:40.777Z,2756
2017-02-06T11:16:21.290Z,2740
2017-02-06T11:17:01.804Z,2716
2017-02-06T11:17:42.317Z,2700
2017-02-06T11:18:22.855Z,2692
2017-02-06T11:19:03.352Z,2732
2017-02-06T11:19:43.834Z,2816
2017-02-06T11:20:24.410Z,2920
2017-02-06T11:21:04.929Z,3008
2017-02-06T11:21:45.434Z,3052
2017-02-06T11:22:25.959Z,3076
2017-02-06T11:23:06.462Z,3056
2017-02-06T11:23:46.984Z,3080
2017-02-06T11:24:27.511Z,3120
2017-02-06T11:25:08.009Z,3112
2017-02-06T11:25:48.514Z,3104
2017-02-06T11:26:29.051Z,3112
2017-02-06T11:27:09.582Z,3144
2017-02-06T11:27:50.088Z,3176
2017-02-06T11:28:30.608Z,3204
2017-02-06T11:29:11.124Z,3168
2017-02-06T11:29:51.623Z,3116
2017-02-06T11:30:32.152Z,3072
2017-02-06T11:31:12.662Z,3068
2017-02-06T11:31:53.156Z,3084
2017-02-06T11:32:33.670Z,3104
2017-02-06T11:33:14.185Z,3116
2017-02-06T11:33:54.695Z,3120
2017-02-06T11:34:35.207Z,3148
2017-02-06T11:35:15.708Z,3156
2017-02-06T11:35:56.224Z,3144
2017-02-06T11:36:36.738Z,3140
2017-02-06T11:37:17.253Z,3148
2017-02-06T11:37:57.749Z,3168
2017-02-06T11:38:38.274Z,3212
2017-02-06T11:39:18.781Z,3264
2017-02-06T11:39:59.322Z,3276
2017-02-06T11:40:39.808Z,3280
2017-02-06T11:41:20.279Z,3284
2017-02-06T11:42:00.786Z,3304
2017-02-06T11:42:41.270Z,3332
2017-02-06T11:43:21.791Z,3332
2017-02-06T11:44:02.306Z,3316
2017-02-06T11:44:42.805Z,3288
2017-02-06T11:45:23.306Z,3256
2017-02-06T11:46:03.828Z,3256
2017-02-06T11:46:44.353Z,3292
2017-02-06T11:47:24.843Z,3344
2017-02-06T11:48:05.354Z,3408
2017-02-06T11:48:45.870Z,3464
2017-02-06T11:49:26.394Z,3528
2017-02-06T11:50:06.906Z,3576
2017-02-06T11:50:47.409Z,3600
2017-02-06T11:51:27.899Z,3600
2017-02-06T11:52:08.422Z,3584
2017-02-06T11:52:48.918Z,3560
2017-02-06T11:53:29.424Z,3544
2017-02-06T11:54:09.931Z,3544
2017-02-06T11:54:50.416Z,3544
2017-02-06T11:55:30.948Z,3540
2017-02-06T11:56:11.527Z,3576
2017-02-06T11:56:52.035Z,3660
2017-02-06T11:57:32.558Z,3720
2017-02-06T11:58:13.076Z,3780
2017-02-06T11:58:53.591Z,3860
2017-02-06T11:59:34.152Z,3928
2017-02-06T12:00:14.660Z,3956
2017-02-06T12:00:55.185Z,3960
2017-02-06T12:01:35.692Z,3996
2017-02-06T12:02:16.193Z,3968
2017-02-06T12:02:56.707Z,3980
2017-02-06T12:03:37.229Z,4020
2017-02-06T12:04:17.728Z,4028
2017-02-06T12:04:58.253Z,4108
2017-02-06T12:05:38.886Z,4192
2017-02-06T12:06:19.516Z,4276
2017-02-06T12:07:00.012Z,4356
2017-02-06T12:07:40.532Z,4596
2017-02-06T12:08:21.037Z,4776
2017-02-06T12:09:01.562Z,4960
2017-02-06T12:09:42.119Z,5060
2017-02-06T12:10:22.632Z,5044
2017-02-06T12:11:03.130Z,5080
2017-02-06T12:11:43.659Z,5288
2017-02-06T12:12:24.192Z,5524
2017-02-06T12:13:04.713Z,5600
2017-02-06T12:13:45.208Z,5548
2017-02-06T12:14:25.710Z,5352
2017-02-06T12:15:06.211Z,5032
2017-02-06T12:15:46.731Z,5000
2017-02-06T12:16:27.230Z,5008
2017-02-06T12:17:07.759Z,5064
2017-02-06T12:17:48.282Z,5072
2017-02-06T12:18:28.789Z,5136
2017-02-06T12:19:09.296Z,5148
2017-02-06T12:19:49.814Z,5156
2017-02-06T12:20:30.319Z,5096
2017-02-06T12:21:10.828Z,4988
2017-02-06T12:21:51.322Z,4976
2017-02-06T12:22:31.829Z,5036
2017-02-06T12:23:12.496Z,5084
2017-02-06T12:23:53.050Z,5168
2017-02-06T12:24:33.585Z,5340
2017-02-06T12:25:14.100Z,5468
2017-02-06T12:25:54.610Z,5532
2017-02-06T12:26:35.128Z,5616
2017-02-06T12:27:15.684Z,5552
2017-02-06T12:27:56.193Z,5404
2017-02-06T12:28:36.724Z,5208
2017-02-06T12:29:17.271Z,5172
2017-02-06T12:29:57.765Z,5156
2017-02-06T12:30:38.264Z,5148
2017-02-06T12:31:18.774Z,5172
2017-02-06T12:31:59.277Z,5244
2017-02-06T12:32:39.791Z,5168
2017-02-06T12:33:20.284Z,5192
2017-02-06T12:34:00.819Z,5196
2017-02-06T12:34:41.320Z,5252
2017-02-06T12:35:21.806Z,5152
2017-02-06T12:36:02.315Z,4956
2017-02-06T12:36:42.834Z,4772
2017-02-06T12:37:23.446Z,4668
2017-02-06T12:38:04.044Z,4604
2017-02-06T12:38:45.078Z,4360
2017-02-06T12:39:25.590Z,4128
2017-02-06T12:40:06.112Z,3876
2017-02-06T12:40:46.732Z,3704
2017-02-06T12:41:27.259Z,3560
2017-02-06T12:42:07.776Z,3432
2017-02-06T12:42:48.263Z,3336
2017-02-06T12:43:28.794Z,3260
2017-02-06T12:44:09.360Z,3216
2017-02-06T12:44:49.795Z,3192
2017-02-06T12:45:30.295Z,3184
2017-02-06T12:46:10.822Z,3184
2017-02-06T12:46:51.380Z,3180
2017-02-06T12:47:31.913Z,3172
2017-02-06T12:48:12.426Z,3160
2017-02-06T12:48:52.940Z,3160
2017-02-06T12:49:33.432Z,3144
2017-02-06T12:50:13.944Z,3152
2017-02-06T12:50:54.458Z,3168
2017-02-06T12:51:35.622Z,3204
2017-02-06T12:52:16.782Z,3244
2017-02-06T12:52:57.957Z,3324
2017-02-06T12:53:38.465Z,3392
2017-02-06T12:54:18.968Z,3500
2017-02-06T12:54:59.498Z,3704
2017-02-06T12:55:40.021Z,3780
2017-02-06T12:56:20.539Z,3852
2017-02-06T12:57:01.066Z,3892
2017-02-06T12:57:41.570Z,3912
2017-02-06T12:58:22.108Z,3912
2017-02-06T12:59:02.608Z,3940
2017-02-06T12:59:43.113Z,3820
2017-02-06T13:00:23.623Z,3792
2017-02-06T13:01:04.130Z,3828
2017-02-06T13:01:44.641Z,3868
2017-02-06T13:02:25.155Z,3808
2017-02-06T13:03:05.682Z,3768
2017-02-06T13:03:46.214Z,3712
2017-02-06T13:04:26.697Z,3700
2017-02-06T13:05:07.189Z,3728
2017-02-06T13:05:47.702Z,3652
2017-02-06T13:06:28.218Z,3748
2017-02-06T13:07:08.732Z,3896
2017-02-06T13:07:49.246Z,3988
2017-02-06T13:08:29.748Z,4064
2017-02-06T13:09:10.258Z,4080
2017-02-06T13:09:50.782Z,4140
2017-02-06T13:10:31.278Z,4220
2017-02-06T13:11:11.800Z,4372
2017-02-06T13:11:52.293Z,4476
2017-02-06T13:12:32.931Z,4592
2017-02-06T13:13:13.446Z,4612
2017-02-06T13:13:53.974Z,4800
2017-02-06T13:14:34.495Z,4804
2017-02-06T13:15:14.987Z,4716
2017-02-06T13:15:55.503Z,4680
2017-02-06T13:16:36.040Z,4764
2017-02-06T13:17:16.565Z,4812
2017-02-06T13:17:58.792Z,4920
2017-02-06T13:18:39.284Z,4872
2017-02-06T13:19:19.794Z,4716
2017-02-06T13:20:00.299Z,4788
2017-02-06T13:20:40.787Z,5084
2017-02-06T13:21:21.300Z,5276
2017-02-06T13:22:01.786Z,5404
2017-02-06T13:22:42.294Z,5468
2017-02-06T13:23:22.867Z,5532
2017-02-06T13:24:04.099Z,5524
2017-02-06T13:24:44.620Z,5528
2017-02-06T13:25:25.125Z,5088
2017-02-06T13:26:05.683Z,4680
2017-02-06T13:26:46.149Z,3972
2017-02-06T13:27:26.673Z,3680
2017-02-06T13:28:07.216Z,3828
2017-02-06T13:28:47.726Z,4116
2017-02-06T13:29:28.317Z,4124
2017-02-06T13:30:08.800Z,4264
2017-02-06T13:30:49.311Z,4256
2017-02-06T13:31:29.810Z,4456
2017-02-06T13:32:10.347Z,4756
2017-02-06T13:32:50.869Z,5256
2017-02-06T13:33:31.371Z,5368
2017-02-06T13:34:12.024Z,5024
2017-02-06T13:34:52.553Z,4244
2017-02-06T13:35:33.086Z,3756
2017-02-06T13:36:13.665Z,3516
2017-02-06T13:36:54.176Z,3708
2017-02-06T13:37:34.679Z,3560
2017-02-06T13:38:15.219Z,3380
2017-02-06T13:38:55.686Z,3472
2017-02-06T13:39:36.182Z,3528
2017-02-06T13:40:16.679Z,3496
2017-02-06T13:40:57.164Z,2924
2017-02-06T13:41:37.669Z,2776
2017-02-06T13:42:18.158Z,2684
2017-02-06T13:42:58.674Z,2532
2017-02-06T13:43:39.180Z,2552
2017-02-06T13:44:19.678Z,2460
2017-02-06T13:45:00.184Z,2356
2017-02-06T13:45:40.707Z,2368
2017-02-06T13:46:21.214Z,2420
2017-02-06T13:47:01.735Z,2464
2017-02-06T13:47:42.248Z,2536
2017-02-06T13:48:22.764Z,2604
2017-02-06T13:49:03.270Z,2724
2017-02-06T13:49:43.781Z,3024
2017-02-06T13:50:24.298Z,3116
2017-02-06T13:51:04.808Z,2968
2017-02-06T13:51:45.278Z,2868
2017-02-06T13:52:25.823Z,2800
2017-02-06T13:53:06.300Z,2820
2017-02-06T13:53:49.514Z,2840
2017-02-06T13:54:30.084Z,2832
2017-02-06T13:55:13.897Z,2836
2017-02-06T13:55:54.499Z,2808
2017-02-06T13:56:34.924Z,2752
2017-02-06T13:57:15.452Z,2700
2017-02-06T13:57:55.959Z,2664
2017-02-06T13:58:36.431Z,2768
2017-02-06T13:59:17.823Z,2984
2017-02-06T13:59:58.382Z,3160
2017-02-06T14:00:38.886Z,3160
2017-02-06T14:01:19.377Z,2928
2017-02-06T14:02:00.988Z,2820
2017-02-06T14:04:31.845Z,2848
2017-02-06T14:05:12.356Z,2988
2017-02-06T14:05:54.737Z,2560
2017-02-06T14:06:35.227Z,2440
2017-02-06T14:07:15.778Z,2484
2017-02-06T14:07:56.290Z,2624
2017-02-06T14:08:36.818Z,2620
2017-02-06T14:09:17.417Z,2652
2017-02-06T14:09:57.885Z,2700
2017-02-06T14:10:38.399Z,2728
2017-02-06T14:11:18.939Z,2676
2017-02-06T14:11:59.494Z,2652
2017-02-06T14:12:40.039Z,2624
2017-02-06T14:13:20.542Z,2640
2017-02-06T14:14:01.064Z,2588
2017-02-06T14:14:41.567Z,2504
2017-02-06T14:15:22.191Z,2412
2017-02-06T14:54:39.801Z,3184
2017-02-06T14:55:20.404Z,3128
2017-02-06T14:56:01.226Z,3076
2017-02-06T14:56:41.710Z,2984
2017-02-06T14:57:22.324Z,2912
2017-02-06T14:58:02.895Z,2680
2017-02-06T15:00:44.603Z,2444
2017-02-06T15:01:26.033Z,2600
2017-02-06T15:03:58.194Z,2564
2017-02-06T15:04:39.291Z,2424
2017-02-06T15:05:20.372Z,2412
2017-02-06T15:06:03.025Z,2472
2017-02-06T15:06:43.808Z,2468
2017-02-06T15:07:27.100Z,2520
2017-02-06T15:08:08.230Z,2488
2017-02-06T15:08:48.899Z,2448
2017-02-06T15:09:31.993Z,2400
2017-02-06T15:10:13.198Z,2356
2017-02-06T15:10:53.700Z,2316
2017-02-06T15:11:34.709Z,2280
2017-02-06T15:12:15.691Z,2240
2017-02-06T15:12:56.492Z,2208
2017-02-06T15:13:38.679Z,2180
2017-02-06T15:14:21.796Z,2152
2017-02-06T15:15:04.068Z,2128
2017-02-06T15:19:08.541Z,2004
2017-02-06T15:19:54.342Z,1980
2017-02-06T15:20:34.973Z,1964
2017-02-06T15:21:15.627Z,1952
2017-02-06T15:21:56.101Z,1944
2017-02-06T15:22:38.192Z,1932
2017-02-06T15:23:18.872Z,1924
2017-02-06T15:23:59.719Z,1912
2017-02-06T15:24:43.179Z,1840
2017-02-06T15:25:25.346Z,1672
2017-02-06T15:26:11.616Z,1496
2017-02-06T15:26:56.657Z,1412
2017-02-06T15:27:37.178Z,1364
2017-02-06T15:28:17.661Z,1324
2017-02-06T15:28:58.147Z,1284
2017-02-06T15:29:38.639Z,1228